createdAt,value
2018-06-23T00:03:51.892Z,36.30
2018-06-23T00:08:55.100Z,36.40
2018-06-23T00:13:58.386Z,36.50
2018-06-23T00:19:01.972Z,36.50
2018-06-23T00:24:05.789Z,36.60
2018-06-23T00:29:09.034Z,36.70
2018-06-23T00:34:12.341Z,37.40
2018-06-23T00:39:15.574Z,36.90
2018-06-23T00:44:18.785Z,37.00
2018-06-23T00:49:22.228Z,37.10
2018-06-23T00:54:25.691Z,37.20
2018-06-23T00:59:38.967Z,37.30
2018-06-23T01:04:42.352Z,37.50
2018-06-23T01:09:45.544Z,37.50
2018-06-23T01:14:49.058Z,37.60
2018-06-23T01:19:52.286Z,37.60
2018-06-23T01:24:55.514Z,37.70
2018-06-23T01:29:58.756Z,37.80
2018-06-23T01:35:02.267Z,37.80
2018-06-23T01:40:05.626Z,38.00
2018-06-23T01:45:09.580Z,38.10
2018-06-23T01:50:12.849Z,38.10
2018-06-23T01:55:16.231Z,38.30
2018-06-23T02:00:19.507Z,38.30
2018-06-23T02:05:22.827Z,38.40
2018-06-23T02:10:26.424Z,38.50
2018-06-23T02:15:35.217Z,38.80
2018-06-23T02:20:43.897Z,38.80
2018-06-23T02:25:52.629Z,38.90
2018-06-23T02:31:01.193Z,39.00
2018-06-23T02:36:04.674Z,38.90
2018-06-23T02:41:08.720Z,39.70
2018-06-23T02:46:18.588Z,39.10
2018-06-23T02:51:22.367Z,39.20
2018-06-23T02:56:25.666Z,39.20
2018-06-23T03:01:28.938Z,39.20
2018-06-23T03:06:32.490Z,39.20
2018-06-23T03:11:35.861Z,39.20
2018-06-23T03:16:39.139Z,39.40
2018-06-23T03:21:42.932Z,39.30
2018-06-23T03:26:46.812Z,39.40
2018-06-23T03:31:50.555Z,39.50
2018-06-23T03:36:53.900Z,40.20
2018-06-23T03:41:57.360Z,39.40
2018-06-23T03:47:01.663Z,39.50
2018-06-23T03:52:04.904Z,39.40
2018-06-23T03:57:08.184Z,39.60
2018-06-23T04:02:11.421Z,39.60
2018-06-23T04:07:14.704Z,39.70
2018-06-23T04:12:17.975Z,39.70
2018-06-23T04:17:21.657Z,39.80
2018-06-23T04:22:24.990Z,39.90
2018-06-23T04:27:28.317Z,40.10
2018-06-23T04:32:31.626Z,40.00
2018-06-23T04:37:35.102Z,40.00
2018-06-23T04:42:38.450Z,39.90
2018-06-23T04:47:42.268Z,39.90
2018-06-23T04:52:45.623Z,40.00
2018-06-23T04:57:48.871Z,40.10
2018-06-23T05:02:52.172Z,40.00
2018-06-23T05:07:55.484Z,40.20
2018-06-23T05:12:58.736Z,40.10
2018-06-23T05:18:03.454Z,40.10
2018-06-23T05:23:06.581Z,40.10
2018-06-23T05:28:10.178Z,40.20
2018-06-23T05:33:17.195Z,40.00
2018-06-23T05:38:20.575Z,40.20
2018-06-23T05:43:23.779Z,40.30
2018-06-23T05:48:27.082Z,40.30
2018-06-23T05:53:30.550Z,40.50
2018-06-23T05:58:33.902Z,40.50
2018-06-23T06:03:37.188Z,40.50
2018-06-23T06:08:40.542Z,40.50
2018-06-23T06:13:43.811Z,40.60
2018-06-23T06:18:47.169Z,40.60
2018-06-23T06:23:50.740Z,39.50
2018-06-23T06:28:54.056Z,38.30
2018-06-23T06:33:57.512Z,39.30
2018-06-23T06:39:01.297Z,39.10
2018-06-23T06:44:04.672Z,38.90
2018-06-23T06:49:07.965Z,41.40
2018-06-23T06:54:11.544Z,41.20
2018-06-23T07:04:19.723Z,44.00
2018-06-23T07:09:23.275Z,45.70
2018-06-23T07:14:26.663Z,47.50
2018-06-23T07:19:30.039Z,46.60
2018-06-23T07:24:33.518Z,47.60
2018-06-23T07:29:37.005Z,48.10
2018-06-23T07:34:40.690Z,48.50
2018-06-23T07:39:44.127Z,49.30
2018-06-23T07:44:47.607Z,49.20
2018-06-23T07:49:50.964Z,49.20
2018-06-23T07:54:54.538Z,49.20
2018-06-23T07:59:57.852Z,50.20
2018-06-23T08:05:03.831Z,50.30
2018-06-23T08:15:10.574Z,49.20
2018-06-23T08:20:14.023Z,48.60
2018-06-23T08:25:17.292Z,48.90
2018-06-23T08:30:20.595Z,49.30
2018-06-23T08:35:24.096Z,49.20
2018-06-23T08:40:27.671Z,49.40
2018-06-23T08:45:30.980Z,49.20
2018-06-23T08:50:34.601Z,48.80
2018-06-23T08:55:38.098Z,48.40
2018-06-23T09:00:41.429Z,47.80
2018-06-23T09:05:44.704Z,48.50
2018-06-23T09:10:48.127Z,48.00
2018-06-23T09:15:53.383Z,47.60
2018-06-23T09:20:58.083Z,47.10
2018-06-23T09:26:01.777Z,47.10
2018-06-23T09:31:05.395Z,47.10
2018-06-23T09:36:09.064Z,47.10
2018-06-23T09:41:12.385Z,47.10
2018-06-23T09:46:15.910Z,47.20
2018-06-23T09:51:19.719Z,46.70
2018-06-23T09:56:23.191Z,47.10
2018-06-23T10:01:26.660Z,45.90
2018-06-23T10:06:29.962Z,46.40
2018-06-23T10:11:33.228Z,46.10
2018-06-23T10:16:36.786Z,46.20
2018-06-23T10:21:40.153Z,46.00
2018-06-23T10:26:43.959Z,46.10
2018-06-23T10:31:47.712Z,45.30
2018-06-23T10:36:51.397Z,44.10
2018-06-23T10:41:54.891Z,43.80
2018-06-23T10:46:58.890Z,43.60
2018-06-23T10:52:02.250Z,43.10
2018-06-23T10:57:05.789Z,42.10
2018-06-23T11:02:09.313Z,41.50
2018-06-23T11:07:13.396Z,41.40
2018-06-23T11:12:16.741Z,40.70
2018-06-23T11:17:20.393Z,41.30
2018-06-23T11:22:24.198Z,41.30
2018-06-23T11:27:27.587Z,41.10
2018-06-23T11:32:30.905Z,40.60
2018-06-23T11:37:34.266Z,40.80
2018-06-23T11:42:37.479Z,40.50
2018-06-23T11:47:40.757Z,40.60
2018-06-23T11:52:44.225Z,40.40
2018-06-23T11:57:47.512Z,40.50
2018-06-23T12:02:51.379Z,40.60
2018-06-23T12:07:54.647Z,40.70
2018-06-23T12:12:57.951Z,40.70
2018-06-23T12:18:01.253Z,40.80
2018-06-23T12:23:04.574Z,40.80
2018-06-23T12:28:08.233Z,41.00
2018-06-23T12:33:11.654Z,41.00
2018-06-23T12:38:14.966Z,41.10
2018-06-23T12:43:18.350Z,41.20
2018-06-23T12:48:22.054Z,41.20
2018-06-23T12:53:25.654Z,41.30
2018-06-23T12:58:28.933Z,41.20
2018-06-23T13:03:33.099Z,41.40
2018-06-23T13:08:36.471Z,41.60
2018-06-23T13:13:39.880Z,41.90
2018-06-23T13:18:43.268Z,41.80
2018-06-23T13:23:46.568Z,42.30
2018-06-23T13:28:49.838Z,43.00
2018-06-23T13:33:53.354Z,42.90
2018-06-23T13:38:56.802Z,43.20
2018-06-23T13:44:00.204Z,43.20
2018-06-23T13:49:03.481Z,43.20
2018-06-23T13:54:06.803Z,43.40
2018-06-23T13:59:10.024Z,43.40
2018-06-23T14:04:13.405Z,43.70
2018-06-23T14:09:16.623Z,43.40
2018-06-23T14:14:20.135Z,43.60
2018-06-23T14:19:23.811Z,43.70
2018-06-23T14:24:27.143Z,43.80
2018-06-23T14:29:30.538Z,43.90
2018-06-23T14:34:33.775Z,43.90
2018-06-23T14:39:37.243Z,44.40
2018-06-23T14:44:40.742Z,44.20
2018-06-23T14:49:44.226Z,44.60
2018-06-23T14:54:47.886Z,44.90
2018-06-23T14:59:51.130Z,45.50
2018-06-23T15:04:54.553Z,46.00
2018-06-23T15:10:09.247Z,46.10
2018-06-23T15:15:13.645Z,46.30
2018-06-23T15:20:16.914Z,47.00
2018-06-23T15:25:21.444Z,47.00
2018-06-23T15:30:24.833Z,47.50
2018-06-23T15:35:28.356Z,48.60
2018-06-23T15:40:32.067Z,48.70
2018-06-23T15:45:36.639Z,49.40
2018-06-23T15:50:40.187Z,49.40
2018-06-23T15:55:44.087Z,49.50
2018-06-23T16:00:48.209Z,50.10
2018-06-23T16:05:51.554Z,50.30
2018-06-23T16:10:54.957Z,50.40
2018-06-23T16:15:58.270Z,50.50
2018-06-23T16:21:02.623Z,50.50
2018-06-23T16:26:05.888Z,50.80
2018-06-23T16:31:09.364Z,51.10
2018-06-23T16:36:13.003Z,51.30
2018-06-23T16:41:16.314Z,50.80
2018-06-23T16:46:19.990Z,50.90
2018-06-23T16:51:23.347Z,50.70
2018-06-23T16:56:26.764Z,50.70
2018-06-23T17:01:30.052Z,50.70
2018-06-23T17:06:33.277Z,50.50
2018-06-23T17:11:37.312Z,50.50
2018-06-23T17:16:41.902Z,50.20
2018-06-23T17:21:45.397Z,50.40
2018-06-23T17:26:48.643Z,50.20
2018-06-23T17:31:52.191Z,50.20
2018-06-23T17:36:55.731Z,49.90
2018-06-23T17:41:58.988Z,50.80
2018-06-23T17:47:02.550Z,51.30
2018-06-23T17:52:05.908Z,50.20
2018-06-23T17:57:09.251Z,51.30
2018-06-23T18:02:12.613Z,51.30
2018-06-23T18:07:16.064Z,50.80
2018-06-23T18:12:20.169Z,51.40
2018-06-23T18:22:27.247Z,50.60
2018-06-23T18:27:30.579Z,50.80
2018-06-23T18:32:34.215Z,51.00
2018-06-23T18:37:37.492Z,50.70
2018-06-23T18:42:41.120Z,50.30
2018-06-23T18:47:44.705Z,50.20
2018-06-23T18:52:48.411Z,50.50
2018-06-23T18:57:52.674Z,50.10
2018-06-23T19:02:56.433Z,50.70
2018-06-23T19:07:59.863Z,49.70
2018-06-23T19:13:03.111Z,50.00
2018-06-23T19:18:06.712Z,50.00
2018-06-23T19:23:10.602Z,50.10
2018-06-23T19:28:13.918Z,50.20
2018-06-23T19:33:17.276Z,49.90
2018-06-23T19:38:21.014Z,50.10
2018-06-23T19:43:25.111Z,50.10
2018-06-23T19:48:28.707Z,49.90
2018-06-23T19:53:32.608Z,50.00
2018-06-23T19:58:36.813Z,49.80
2018-06-23T20:03:39.988Z,49.70
2018-06-23T20:08:43.277Z,48.80
2018-06-23T20:13:46.668Z,49.40
2018-06-23T20:18:49.860Z,49.10
2018-06-23T20:23:53.835Z,49.10
2018-06-23T20:28:57.239Z,49.30
2018-06-23T20:34:00.978Z,49.20
2018-06-23T20:39:05.972Z,49.00
2018-06-23T20:44:09.559Z,48.90
2018-06-23T20:49:12.892Z,48.90
2018-06-23T20:54:16.262Z,48.60
2018-06-23T20:59:19.656Z,48.80
2018-06-23T21:04:23.437Z,48.80
2018-06-23T21:09:26.841Z,48.80
2018-06-23T21:14:30.458Z,48.60
2018-06-23T21:19:35.030Z,48.60
2018-06-23T21:24:38.399Z,48.80
2018-06-23T21:29:41.697Z,48.80
2018-06-23T21:34:44.981Z,48.80
2018-06-23T21:39:48.599Z,48.80
2018-06-23T21:54:58.951Z,50.70
2018-06-23T22:00:02.735Z,51.70
2018-06-23T22:05:06.383Z,49.60
2018-06-23T22:10:09.925Z,48.80
2018-06-23T22:15:15.664Z,48.30
2018-06-23T22:20:19.951Z,48.20
2018-06-23T22:25:23.962Z,48.00
2018-06-23T22:30:27.168Z,48.10
2018-06-23T22:35:30.416Z,48.10
2018-06-23T22:40:33.817Z,48.40
2018-06-23T22:45:37.077Z,48.30
2018-06-23T22:50:40.407Z,48.40
2018-06-23T22:55:43.735Z,48.40
2018-06-23T23:00:47.067Z,48.50
2018-06-23T23:05:50.278Z,48.50
2018-06-23T23:10:53.527Z,48.50
2018-06-23T23:15:56.761Z,48.60
2018-06-23T23:20:59.987Z,48.90
2018-06-23T23:26:03.534Z,48.60
2018-06-23T23:31:06.889Z,48.60
2018-06-23T23:36:10.689Z,48.70
2018-06-23T23:41:13.877Z,48.70
2018-06-23T23:46:17.237Z,48.70
2018-06-23T23:51:20.455Z,48.70
2018-06-23T23:56:23.694Z,48.80
